Newvida — V7KQ7 — position and weather

sailwx.info

Track history (hours):
 
Tides and Currents Weather Stations Pressure Air Temp Water Temp Dewpoint Dewpoint Depression Visibility Wind Speed Wind Dir Waves Ship Positions

Newvida

Last reported at 2018-May-17 18:52 UTC. Time now 2018-May-26 07:45 UTC.
Position N 26°23' W 079°57'.
Warning: this ship's position is 8 days out of date.

Length 56 m; draft 2.4 m.

Type: Pleasure craft. MMSI: 538080049.

Date/timePositionNaut miles runAvg speedWind from/ knotsBaromVisibWave heightAir tempDewpointWater temp
2018-May-17 18:52N 26°23' W 079°57'614.6
2018-May-17 18:29N 26°17' W 079°59'612.9
2018-May-17 18:00N 26°12' W 080°01'611.8
2018-May-17 17:31N 26°06' W 080°04'3 5.3
2018-May-17 16:59N 26°06' W 080°07'0 0.0
2018-May-17 16:29N 26°06' W 080°07'0 0.0
2018-May-17 15:59N 26°06' W 080°07'0 0.0
2018-May-17 15:29N 26°06' W 080°07'0 0.0
2018-May-17 14:59N 26°06' W 080°07'0 0.0
2018-May-17 14:29N 26°06' W 080°07'0 0.0
2018-May-17 13:59N 26°06' W 080°07'0 0.0
2018-May-17 13:29N 26°06' W 080°07'0 0.0
2018-May-17 13:00N 26°06' W 080°07'2 3.7
2018-May-17 12:30N 26°06' W 080°05'4 7.3
2018-May-17 12:00N 26°10' W 080°04'510.1
2018-May-17 11:30N 26°14' W 080°02'4 8.7
2018-May-17 11:00N 26°18' W 079°60'4 8.2
2018-May-17 10:31N 26°22' W 079°58'4 7.6
2018-May-17 10:00N 26°26' W 079°56'8 0.5
2018-May-16 18:03N 26°18' W 079°59'214.7
2018-May-16 17:56N 26°17' W 079°60'614.5
2018-May-16 17:30N 26°11' W 080°02'612.2
2018-May-16 17:00N 26°06' W 080°05'2 3.7
2018-May-16 16:30N 26°07' W 080°07'2 3.2
2018-May-16 16:00N 26°07' W 080°09'1 2.8
2018-May-16 15:31N 26°06' W 080°10'0 0.1
2018-May-16 15:00N 26°06' W 080°10'0 0.0
2018-May-16 14:28N 26°06' W 080°10'0 0.0
2018-May-16 13:58N 26°06' W 080°10'0 0.0
2018-May-16 13:28N 26°06' W 080°10'0 0.0
2018-May-16 12:58N 26°06' W 080°10'0 0.0
2018-May-16 12:28N 26°06' W 080°10'0 0.0
2018-May-16 11:58N 26°06' W 080°10'0 0.0
2018-May-16 11:28N 26°06' W 080°10'0 0.0
2018-May-16 10:58N 26°06' W 080°10'0 0.0
2018-May-16 10:28N 26°06' W 080°10'0 0.0
2018-May-16 09:58N 26°06' W 080°10'0 0.0
2018-May-16 09:28N 26°06' W 080°10'0 0.0
2018-May-16 08:58N 26°06' W 080°10'0 0.0
2018-May-16 08:28N 26°06' W 080°10'0 0.0
2018-May-16 07:58N 26°06' W 080°10'0 0.0
2018-May-16 07:28N 26°06' W 080°10'0 0.0
2018-May-16 06:58N 26°06' W 080°10'0 0.0
2018-May-16 06:28N 26°06' W 080°10'0 0.0
2018-May-16 05:58N 26°06' W 080°10'0 0.0
2018-May-16 05:28N 26°06' W 080°10'0 0.0
2018-May-16 04:58N 26°06' W 080°10'0 0.0
2018-May-16 04:28N 26°06' W 080°10'0 0.0
2018-May-16 03:58N 26°06' W 080°10'0 0.0
2018-May-16 03:28N 26°06' W 080°10'0 0.0
2018-May-16 02:58N 26°06' W 080°10'0 0.0
2018-May-16 02:28N 26°06' W 080°10'0 0.0
2018-May-16 01:58N 26°06' W 080°10'0 0.0
2018-May-16 01:28N 26°06' W 080°10'0 0.0
2018-May-16 00:58N 26°06' W 080°10'0 0.0
2018-May-16 00:28N 26°06' W 080°10'0 0.0
2018-May-15 23:58N 26°06' W 080°10'0 0.0
2018-May-15 23:28N 26°06' W 080°10'0 0.0
2018-May-15 22:58N 26°06' W 080°10'0 0.0
2018-May-15 22:28N 26°06' W 080°10'0 0.0
2018-May-15 21:58N 26°06' W 080°10'0 0.0
2018-May-15 21:28N 26°06' W 080°10'0 0.0
2018-May-15 20:58N 26°06' W 080°10'0 0.0
2018-May-15 20:28N 26°06' W 080°10'0 0.0
2018-May-15 19:58N 26°06' W 080°10'0 0.0
2018-May-15 19:28N 26°06' W 080°10'0 0.0
2018-May-15 18:58N 26°06' W 080°10'0 0.0
2018-May-15 18:25N 26°06' W 080°10'0 0.0
2018-May-15 17:58N 26°06' W 080°10'0 0.0
2018-May-15 17:28N 26°06' W 080°10'0 0.0
2018-May-15 16:55N 26°06' W 080°10'0 0.0
2018-May-15 16:28N 26°06' W 080°10'0 0.0
2018-May-15 15:55N 26°06' W 080°10'0 0.0
2018-May-15 15:28N 26°06' W 080°10'0 0.0
2018-May-15 14:58N 26°06' W 080°10'0 0.0
2018-May-15 14:28N 26°06' W 080°10'0 0.0
2018-May-15 13:58N 26°06' W 080°10'0 0.0
2018-May-15 13:28N 26°06' W 080°10'0 0.0
2018-May-15 12:58N 26°06' W 080°10'0 0.0
2018-May-15 12:28N 26°06' W 080°10'0 0.0
2018-May-15 11:58N 26°06' W 080°10'0 0.0
2018-May-15 11:28N 26°06' W 080°10'0 0.0
2018-May-15 10:58N 26°06' W 080°10'0 0.0
2018-May-15 10:28N 26°06' W 080°10'0 0.0
2018-May-15 09:58N 26°06' W 080°10'0 0.0
2018-May-15 09:28N 26°06' W 080°10'0 0.0
2018-May-15 08:58N 26°06' W 080°10'0 0.0
2018-May-15 08:28N 26°06' W 080°10'0 0.0
2018-May-15 07:58N 26°06' W 080°10'0 0.0
2018-May-15 07:28N 26°06' W 080°10'0 0.0
2018-May-15 06:58N 26°06' W 080°10'0 0.0
2018-May-15 06:28N 26°06' W 080°10'0 0.0
2018-May-15 05:58N 26°06' W 080°10'0 0.0
2018-May-15 05:28N 26°06' W 080°10'0 0.0
2018-May-15 04:58N 26°06' W 080°10'0 0.0
2018-May-15 04:25N 26°06' W 080°10'0 0.0
2018-May-15 03:58N 26°06' W 080°10'0 0.0
2018-May-15 03:28N 26°06' W 080°10'0 0.0
2018-May-15 02:58N 26°06' W 080°10'0 0.0
2018-May-15 02:28N 26°06' W 080°10'0 0.0
2018-May-15 01:58N 26°06' W 080°10'0 0.0
2018-May-15 01:28N 26°06' W 080°10'0 0.0
2018-May-15 00:58N 26°06' W 080°10'0 0.0
2018-May-15 00:25N 26°06' W 080°10'0 0.0
2018-May-14 23:58N 26°06' W 080°10'0 0.0
2018-May-14 23:28N 26°06' W 080°10'0 0.0
2018-May-14 22:58N 26°06' W 080°10'0 0.0
2018-May-14 22:28N 26°06' W 080°10'0 0.0
2018-May-14 21:58N 26°06' W 080°10'0 0.0
2018-May-14 21:28N 26°06' W 080°10'0 0.0
2018-May-14 20:58N 26°06' W 080°10'0 0.0
2018-May-14 20:28N 26°06' W 080°10'0 0.0
2018-May-14 19:58N 26°06' W 080°10'0 0.0
2018-May-14 19:28N 26°06' W 080°10'0 0.0
2018-May-14 18:58N 26°06' W 080°10'0 0.0
2018-May-14 18:28N 26°06' W 080°10'0 0.0
2018-May-14 17:58N 26°06' W 080°10'0 0.0
2018-May-14 17:28N 26°06' W 080°10'0 0.0
2018-May-14 16:58N 26°06' W 080°10'0 0.0
2018-May-14 16:28N 26°06' W 080°10'0 0.0
2018-May-14 15:58N 26°06' W 080°10'0 0.0
2018-May-14 15:28N 26°06' W 080°10'0 0.0
2018-May-14 14:58N 26°06' W 080°10'0 0.0
2018-May-14 14:28N 26°06' W 080°10'0 0.0
2018-May-14 13:58N 26°06' W 080°10'0 0.0
2018-May-14 13:28N 26°06' W 080°10'0 0.0
2018-May-14 12:58N 26°06' W 080°10'0 0.0
2018-May-14 12:28N 26°06' W 080°10'0 0.0
2018-May-14 11:55N 26°06' W 080°10'0 0.0
2018-May-14 11:25N 26°06' W 080°10'0 0.0
2018-May-14 10:58N 26°06' W 080°10'0 0.0
2018-May-14 10:28N 26°06' W 080°10'0 0.0
2018-May-14 09:58N 26°06' W 080°10'0 0.0
2018-May-14 09:28N 26°06' W 080°10'0 0.0
2018-May-14 08:58N 26°06' W 080°10'0 0.0
2018-May-14 08:28N 26°06' W 080°10'0 0.0
2018-May-14 07:58N 26°06' W 080°10'0 0.0
2018-May-14 07:28N 26°06' W 080°10'0 0.0
2018-May-14 06:58N 26°06' W 080°10'0 0.0
2018-May-14 06:28N 26°06' W 080°10'0 0.0
2018-May-14 05:58N 26°06' W 080°10'0 0.0
2018-May-14 05:28N 26°06' W 080°10'0 0.0
2018-May-14 04:58N 26°06' W 080°10'0 0.0
2018-May-14 04:28N 26°06' W 080°10'0 0.0
2018-May-14 03:58N 26°06' W 080°10'0 0.0
2018-May-14 03:28N 26°06' W 080°10'0 0.0
2018-May-14 02:58N 26°06' W 080°10'0 0.0
2018-May-14 02:28N 26°06' W 080°10'0 0.0
2018-May-14 01:58N 26°06' W 080°10'0 0.0
2018-May-14 01:28N 26°06' W 080°10'0 0.0
2018-May-14 00:58N 26°06' W 080°10'0 0.0
2018-May-14 00:28N 26°06' W 080°10'0 0.0
2018-May-13 23:55N 26°06' W 080°10'0 0.0
2018-May-13 23:28N 26°06' W 080°10'0 0.0
2018-May-13 22:58N 26°06' W 080°10'0 0.0
2018-May-13 22:28N 26°06' W 080°10'0 0.0
2018-May-13 21:58N 26°06' W 080°10'0 0.0
2018-May-13 21:28N 26°06' W 080°10'0 0.0
2018-May-13 20:55N 26°06' W 080°10'0 0.0
2018-May-13 20:28N 26°06' W 080°10'0 0.0
2018-May-13 19:58N 26°06' W 080°10'0 0.0
2018-May-13 19:28N 26°06' W 080°10'0 0.0
2018-May-13 18:58N 26°06' W 080°10'0 0.0
2018-May-13 18:28N 26°06' W 080°10'0 0.0
2018-May-13 17:58N 26°06' W 080°10'0 0.0
2018-May-13 17:28N 26°06' W 080°10'0 0.0
2018-May-13 16:58N 26°06' W 080°10'0 0.0
2018-May-13 16:28N 26°06' W 080°10'0 0.0
2018-May-13 15:58N 26°06' W 080°10'0 0.0
2018-May-13 15:28N 26°06' W 080°10'0 0.0
2018-May-13 14:58N 26°06' W 080°10'0 0.0
2018-May-13 14:28N 26°06' W 080°10'0 0.0
2018-May-13 13:58N 26°06' W 080°10'0 0.0
2018-May-13 13:28N 26°06' W 080°10'0 0.0
2018-May-13 12:58N 26°06' W 080°10'0 0.0
2018-May-13 12:28N 26°06' W 080°10'0 0.0
2018-May-13 11:58N 26°06' W 080°10'0 0.0
2018-May-13 11:28N 26°06' W 080°10'0 0.0
2018-May-13 10:58N 26°06' W 080°10'0 0.0
2018-May-13 10:28N 26°06' W 080°10'0 0.0
2018-May-13 09:58N 26°06' W 080°10'0 0.0
2018-May-13 09:28N 26°06' W 080°10'0 0.0
2018-May-13 08:58N 26°06' W 080°10'0 0.0
2018-May-13 08:28N 26°06' W 080°10'0 0.0
2018-May-13 07:58N 26°06' W 080°10'0 0.0
2018-May-13 07:25N 26°06' W 080°10'0 0.0
2018-May-13 06:58N 26°06' W 080°10'0 0.0
2018-May-13 06:28N 26°06' W 080°10'0 0.0
2018-May-13 05:58N 26°06' W 080°10'0 0.0
2018-May-13 05:28N 26°06' W 080°10'0 0.0
2018-May-13 04:58N 26°06' W 080°10'0 0.0
2018-May-13 04:28N 26°06' W 080°10'0 0.0
2018-May-13 03:58N 26°06' W 080°10'0 0.0
2018-May-13 03:28N 26°06' W 080°10'0 0.0
2018-May-13 02:55N 26°06' W 080°10'0 0.0
2018-May-13 02:28N 26°06' W 080°10'0 0.0
2018-May-13 01:58N 26°06' W 080°10'0 0.0
2018-May-13 01:28N 26°06' W 080°10'0 0.0
2018-May-13 00:58N 26°06' W 080°10'0 0.0
2018-May-13 00:28N 26°06' W 080°10'0 0.0
2018-May-12 23:58N 26°06' W 080°10'0 0.0
2018-May-12 23:28N 26°06' W 080°10'0 0.0
2018-May-12 22:58N 26°06' W 080°10'0 0.0
2018-May-12 22:28N 26°06' W 080°10'0 0.0
2018-May-12 21:58N 26°06' W 080°10'0 0.0
2018-May-12 21:28N 26°06' W 080°10'0 0.0
2018-May-12 20:58N 26°06' W 080°10'0 0.0
2018-May-12 20:28N 26°06' W 080°10'0 0.0
2018-May-12 19:58N 26°06' W 080°10'0 0.0
2018-May-12 19:25N 26°06' W 080°10'0 0.0
2018-May-12 18:58N 26°06' W 080°10'0 0.0
2018-May-12 18:28N 26°06' W 080°10'0 0.0
2018-May-12 17:58N 26°06' W 080°10'0 0.0
2018-May-12 17:25N 26°06' W 080°10'0 0.0
2018-May-12 16:58N 26°06' W 080°10'0 0.0
2018-May-12 16:28N 26°06' W 080°10'0 0.0
2018-May-12 15:58N 26°06' W 080°10'0 0.0
2018-May-12 15:28N 26°06' W 080°10'0 0.0
2018-May-12 14:55N 26°06' W 080°10'0 0.0
2018-May-12 14:25N 26°06' W 080°10'0 0.0
2018-May-12 13:58N 26°06' W 080°10'0 0.0
2018-May-12 13:28N 26°06' W 080°10'0 0.0
2018-May-12 12:58N 26°06' W 080°10'0 0.0
2018-May-12 12:28N 26°06' W 080°10'0 0.0
2018-May-12 11:58N 26°06' W 080°10'0 0.0
2018-May-12 11:28N 26°06' W 080°10'0 0.0
2018-May-12 10:58N 26°06' W 080°10'0 0.0
2018-May-12 10:28N 26°06' W 080°10'0 0.0
2018-May-12 09:58N 26°06' W 080°10'0 0.0
2018-May-12 09:28N 26°06' W 080°10'0 0.0
2018-May-12 08:58N 26°06' W 080°10'0 0.0
2018-May-12 08:28N 26°06' W 080°10'0 0.0
2018-May-12 07:58N 26°06' W 080°10'0 0.0
2018-May-12 07:28N 26°06' W 080°10'0 0.0
2018-May-12 06:58N 26°06' W 080°10'0 0.0
2018-May-12 06:28N 26°06' W 080°10'0 0.0
2018-May-12 05:58N 26°06' W 080°10'0 0.0
2018-May-12 05:28N 26°06' W 080°10'0 0.0
2018-May-12 04:52N 26°06' W 080°10'0 0.0
2018-May-12 04:28N 26°06' W 080°10'0 0.0
2018-May-12 03:58N 26°06' W 080°10'0 0.0
2018-May-12 03:25N 26°06' W 080°10'0 0.0
2018-May-12 02:58N 26°06' W 080°10'0 0.0
2018-May-12 02:28N 26°06' W 080°10'0 0.0
2018-May-12 01:58N 26°06' W 080°10'0 0.0
2018-May-12 01:28N 26°06' W 080°10'0 0.0
2018-May-12 00:58N 26°06' W 080°10'0 0.0
2018-May-12 00:25N 26°06' W 080°10'0 0.0
2018-May-11 23:58N 26°06' W 080°10'0 0.0
2018-May-11 23:28N 26°06' W 080°10'0 0.0
2018-May-11 22:58N 26°06' W 080°10'0 0.0
2018-May-11 22:28N 26°06' W 080°10'0 0.0
2018-May-11 21:58N 26°06' W 080°10'0 0.0
2018-May-11 21:28N 26°06' W 080°10'0 0.0
2018-May-11 20:58N 26°06' W 080°10'0 0.0
2018-May-11 20:28N 26°06' W 080°10'0 0.0
2018-May-11 19:58N 26°06' W 080°10'0 0.0
2018-May-11 19:25N 26°06' W 080°10'0 0.0
2018-May-11 18:58N 26°06' W 080°10'0 0.0
2018-May-11 18:28N 26°06' W 080°10'0 0.0
2018-May-11 17:58N 26°06' W 080°10'0 0.0
2018-May-11 17:28N 26°06' W 080°10'0 0.0
2018-May-11 16:58N 26°06' W 080°10'0 0.0
2018-May-11 16:28N 26°06' W 080°10'0 0.0
2018-May-11 15:58N 26°06' W 080°10'0 0.0
2018-May-11 15:28N 26°06' W 080°10'0 0.0
2018-May-11 14:52N 26°06' W 080°10'0 0.0
2018-May-11 14:25N 26°06' W 080°10'0 0.0
2018-May-11 13:58N 26°06' W 080°10'0 0.0
2018-May-11 13:25N 26°06' W 080°10'0 0.0
2018-May-11 12:58N 26°06' W 080°10'0 0.0
2018-May-11 12:28N 26°06' W 080°10'0 0.0
2018-May-11 11:58N 26°06' W 080°10'0 0.0
2018-May-11 11:28N 26°06' W 080°10'0 0.0
2018-May-11 10:58N 26°06' W 080°10'0 0.0
2018-May-11 10:25N 26°06' W 080°10'0 0.0
2018-May-11 09:58N 26°06' W 080°10'0 0.0
2018-May-11 09:28N 26°06' W 080°10'0 0.0
2018-May-11 08:58N 26°06' W 080°10'0 0.0
2018-May-11 08:28N 26°06' W 080°10'0 0.0
2018-May-11 07:58N 26°06' W 080°10'0 0.0
2018-May-11 07:28N 26°06' W 080°10'0 0.0
2018-May-11 06:58N 26°06' W 080°10'0 0.0
2018-May-11 06:28N 26°06' W 080°10'0 0.0
2018-May-11 05:58N 26°06' W 080°10'0 0.0
2018-May-11 05:28N 26°06' W 080°10'0 0.0
2018-May-11 04:58N 26°06' W 080°10'0 0.0
2018-May-11 04:28N 26°06' W 080°10'0 0.0
2018-May-11 03:58N 26°06' W 080°10'0 0.0
2018-May-11 03:28N 26°06' W 080°10'0 0.0
2018-May-11 02:58N 26°06' W 080°10'0 0.0
2018-May-11 02:19N 26°06' W 080°10'0 0.0
2018-May-11 01:49N 26°06' W 080°10'0 0.0
2018-May-11 01:22N 26°06' W 080°10'0 0.0
2018-May-11 00:52N 26°06' W 080°10'0 0.0
2018-May-11 00:22N 26°06' W 080°10'0 0.0
2018-May-10 23:58N 26°06' W 080°10'0 0.0
2018-May-10 23:28N 26°06' W 080°10'0 0.0
2018-May-10 22:58N 26°06' W 080°10'0 0.0
2018-May-10 22:22N 26°06' W 080°10'0 0.0
2018-May-10 21:55N 26°06' W 080°10'0 0.0
2018-May-10 21:28N 26°06' W 080°10'0 0.0
2018-May-10 20:58N 26°06' W 080°10'0 0.0
2018-May-10 20:28N 26°06' W 080°10'0 0.0
2018-May-10 19:58N 26°06' W 080°10'0 0.0
2018-May-10 19:28N 26°06' W 080°10'0 0.0
2018-May-10 18:58N 26°06' W 080°10'0 0.0
2018-May-10 18:28N 26°06' W 080°10'0 0.0
2018-May-10 17:58N 26°06' W 080°10'0 0.0
2018-May-10 17:28N 26°06' W 080°10'0 0.0
2018-May-10 16:58N 26°06' W 080°10'0 0.0
2018-May-10 16:28N 26°06' W 080°10'0 0.0
2018-May-10 15:58N 26°06' W 080°10'0 0.0
2018-May-10 15:25N 26°06' W 080°10'0 0.0
2018-May-10 14:58N 26°06' W 080°10'0 0.0
2018-May-10 14:28N 26°06' W 080°10'0 0.0
2018-May-10 13:58N 26°06' W 080°10'0 0.0
2018-May-10 13:28N 26°06' W 080°10'0 0.0
2018-May-10 12:58N 26°06' W 080°10'0 0.0
2018-May-10 12:28N 26°06' W 080°10'0 0.0
2018-May-10 11:58N 26°06' W 080°10'0 0.0
2018-May-10 11:28N 26°06' W 080°10'0 0.0
2018-May-10 10:58N 26°06' W 080°10'0 0.0
2018-May-10 10:28N 26°06' W 080°10'0 0.0
2018-May-10 09:58N 26°06' W 080°10'0 0.0
2018-May-10 09:28N 26°06' W 080°10'0 0.0
2018-May-10 08:58N 26°06' W 080°10'0 0.0
2018-May-10 08:28N 26°06' W 080°10'0 0.0
2018-May-10 07:58N 26°06' W 080°10'0 0.0
2018-May-10 07:28N 26°06' W 080°10'0 0.0
2018-May-10 06:58N 26°06' W 080°10'0 0.0
2018-May-10 06:28N 26°06' W 080°10'0 0.0
2018-May-10 05:58N 26°06' W 080°10'0 0.0
2018-May-10 05:28N 26°06' W 080°10'0 0.0
2018-May-10 04:58N 26°06' W 080°10'0 0.0
2018-May-10 04:28N 26°06' W 080°10'0 0.0
2018-May-10 03:58N 26°06' W 080°10'0 0.0
2018-May-10 03:28N 26°06' W 080°10'0 0.0
2018-May-10 02:58N 26°06' W 080°10'0 0.0
2018-May-10 02:28N 26°06' W 080°10'0 0.0
2018-May-10 01:58N 26°06' W 080°10'0 0.0
2018-May-10 01:28N 26°06' W 080°10'0 0.0
2018-May-10 00:58N 26°06' W 080°10'0 0.0
2018-May-10 00:28N 26°06' W 080°10'0 0.0
2018-May-09 23:58N 26°06' W 080°10'0 0.0
2018-May-09 23:28N 26°06' W 080°10'0 0.0
2018-May-09 22:58N 26°06' W 080°10'0 0.0
2018-May-09 22:28N 26°06' W 080°10'0 0.0
2018-May-09 21:58N 26°06' W 080°10'0 0.0
2018-May-09 21:28N 26°06' W 080°10'0 0.0
2018-May-09 20:58N 26°06' W 080°10'0 0.0
2018-May-09 20:28N 26°06' W 080°10'0 0.0
2018-May-09 19:58N 26°06' W 080°10'0 0.0
2018-May-09 19:25N 26°06' W 080°10'0 0.0
2018-May-09 18:58N 26°06' W 080°10'0 0.0
2018-May-09 18:28N 26°06' W 080°10'0 0.0
2018-May-09 17:55N 26°06' W 080°10'0 0.0
2018-May-09 17:25N 26°06' W 080°10'0 0.0
2018-May-09 16:58N 26°06' W 080°10'0 0.0
2018-May-09 16:28N 26°06' W 080°10'0 0.0
2018-May-09 15:58N 26°06' W 080°10'0 0.0
2018-May-09 15:28N 26°06' W 080°10'0 0.0
2018-May-09 14:58N 26°06' W 080°10'0 0.0
2018-May-09 14:28N 26°06' W 080°10'0 0.0
2018-May-09 13:58N 26°06' W 080°10'0 0.0
2018-May-09 13:22N 26°06' W 080°10'0 0.0
2018-May-09 12:58N 26°06' W 080°10'0 0.0
2018-May-09 12:25N 26°06' W 080°10'0 0.0
2018-May-09 11:58N 26°06' W 080°10'0 0.0
2018-May-09 11:28N 26°06' W 080°10'0 0.0
2018-May-09 10:58N 26°06' W 080°10'0 0.0
2018-May-09 10:28N 26°06' W 080°10'0 0.0
2018-May-09 09:58N 26°06' W 080°10'0 0.0
2018-May-09 09:28N 26°06' W 080°10'0 0.0
2018-May-09 08:58N 26°06' W 080°10'0 0.0
2018-May-09 08:28N 26°06' W 080°10'0 0.0
2018-May-09 07:58N 26°06' W 080°10'0 0.0
2018-May-09 07:28N 26°06' W 080°10'0 0.0
2018-May-09 06:58N 26°06' W 080°10'0 0.0
2018-May-09 06:28N 26°06' W 080°10'0 0.0
2018-May-09 05:58N 26°06' W 080°10'0 0.0
2018-May-09 05:28N 26°06' W 080°10'0 0.0
2018-May-09 04:58N 26°06' W 080°10'0 0.0
2018-May-09 04:28N 26°06' W 080°10'0 0.0
2018-May-09 03:58N 26°06' W 080°10'0 0.0
2018-May-09 03:28N 26°06' W 080°10'0 0.0
2018-May-09 02:58N 26°06' W 080°10'0 0.0
2018-May-09 02:28N 26°06' W 080°10'0 0.0
2018-May-09 01:58N 26°06' W 080°10'0 0.0
2018-May-09 01:28N 26°06' W 080°10'0 0.0
2018-May-09 00:58N 26°06' W 080°10'0 0.0
2018-May-09 00:28N 26°06' W 080°10'0 0.0
2018-May-08 23:58N 26°06' W 080°10'0 0.0
2018-May-08 23:28N 26°06' W 080°10'0 0.0
2018-May-08 22:58N 26°06' W 080°10'0 0.0
2018-May-08 22:28N 26°06' W 080°10'0 0.0
2018-May-08 21:58N 26°06' W 080°10'0 0.0
2018-May-08 21:28N 26°06' W 080°10'0 0.0
2018-May-08 20:58N 26°06' W 080°10'0 0.0
2018-May-08 20:28N 26°06' W 080°10'0 0.0
2018-May-08 19:58N 26°06' W 080°10'0 0.0
2018-May-08 19:28N 26°06' W 080°10'0 0.0
2018-May-08 18:58N 26°06' W 080°10'0 0.0
2018-May-08 18:28N 26°06' W 080°10'0 0.0
2018-May-08 17:58N 26°06' W 080°10'0 0.0
2018-May-08 17:28N 26°06' W 080°10'0 0.0
2018-May-08 16:58N 26°06' W 080°10'0 0.0
2018-May-08 16:28N 26°06' W 080°10'0 0.0
2018-May-08 15:58N 26°06' W 080°10'0 0.0
2018-May-08 15:28N 26°06' W 080°10'0 0.0
2018-May-08 14:58N 26°06' W 080°10'0 0.0
2018-May-08 14:28N 26°06' W 080°10'0 0.0
2018-May-08 13:58N 26°06' W 080°10'0 0.0
2018-May-08 13:28N 26°06' W 080°10'0 0.0
2018-May-08 12:58N 26°06' W 080°10'0 0.0
2018-May-08 12:28N 26°06' W 080°10'0 0.0
2018-May-08 11:58N 26°06' W 080°10'0 0.0
2018-May-08 11:28N 26°06' W 080°10'0 0.0
2018-May-08 10:58N 26°06' W 080°10'0 0.0
2018-May-08 10:28N 26°06' W 080°10'0 0.0
2018-May-08 09:58N 26°06' W 080°10'0 0.0
2018-May-08 09:28N 26°06' W 080°10'0 0.0
2018-May-08 08:58N 26°06' W 080°10'0 0.0
2018-May-08 08:28N 26°06' W 080°10'0 0.0
2018-May-08 07:58N 26°06' W 080°10'0 0.0
2018-May-08 07:28N 26°06' W 080°10'0 0.0
2018-May-08 06:58N 26°06' W 080°10'0 0.0
2018-May-08 06:28N 26°06' W 080°10'0 0.0
2018-May-08 05:58N 26°06' W 080°10'0 0.0
2018-May-08 05:28N 26°06' W 080°10'0 0.0
2018-May-08 04:58N 26°06' W 080°10'0 0.0
2018-May-08 04:28N 26°06' W 080°10'0 0.0
2018-May-08 03:58N 26°06' W 080°10'0 0.0
2018-May-08 03:28N 26°06' W 080°10'0 0.0
2018-May-08 02:58N 26°06' W 080°10'0 0.0
2018-May-08 02:28N 26°06' W 080°10'0 0.0
2018-May-08 01:58N 26°06' W 080°10'0 0.0
2018-May-08 01:28N 26°06' W 080°10'0 0.0
2018-May-08 00:58N 26°06' W 080°10'0 0.0
2018-May-08 00:28N 26°06' W 080°10'0 0.0
2018-May-07 23:55N 26°06' W 080°10'0 0.0
2018-May-07 23:28N 26°06' W 080°10'0 0.0
2018-May-07 22:55N 26°06' W 080°10'0 0.0
2018-May-07 22:28N 26°06' W 080°10'0 0.0
2018-May-07 21:58N 26°06' W 080°10'0 0.0
2018-May-07 21:28N 26°06' W 080°10'0 0.0
2018-May-07 20:58N 26°06' W 080°10'0 0.0
2018-May-07 20:28N 26°06' W 080°10'0 0.0
2018-May-07 19:58N 26°06' W 080°10'0 0.0
2018-May-07 19:28N 26°06' W 080°10'0 0.0
2018-May-07 18:58N 26°06' W 080°10'  
Track history (hours):
 
Tides and Currents Weather Stations Pressure Air Temp Water Temp Dewpoint Dewpoint Depression Visibility Wind Speed Wind Dir Waves Ship Positions

Newvida

Last reported at 2018-May-17 18:52 UTC. Time now 2018-May-26 07:46 UTC.
Position N 26°23' W 079°57'.
Warning: this ship's position is 8 days out of date.

Length 56 m; draft 2.4 m.

Type: Pleasure craft. MMSI: 538080049.

Date/timePositionNaut miles runAvg speedWind from/ knotsBaromVisibWave heightAir tempDewpointWater temp
2018-May-17 18:52N 26°23' W 079°57'614.6
2018-May-17 18:29N 26°17' W 079°59'612.9
2018-May-17 18:00N 26°12' W 080°01'611.8
2018-May-17 17:31N 26°06' W 080°04'3 5.3
2018-May-17 16:59N 26°06' W 080°07'0 0.0
2018-May-17 16:29N 26°06' W 080°07'0 0.0
2018-May-17 15:59N 26°06' W 080°07'0 0.0
2018-May-17 15:29N 26°06' W 080°07'0 0.0
2018-May-17 14:59N 26°06' W 080°07'0 0.0
2018-May-17 14:29N 26°06' W 080°07'0 0.0
2018-May-17 13:59N 26°06' W 080°07'0 0.0
2018-May-17 13:29N 26°06' W 080°07'0 0.0
2018-May-17 13:00N 26°06' W 080°07'2 3.7
2018-May-17 12:30N 26°06' W 080°05'4 7.3
2018-May-17 12:00N 26°10' W 080°04'510.1
2018-May-17 11:30N 26°14' W 080°02'4 8.7
2018-May-17 11:00N 26°18' W 079°60'4 8.2
2018-May-17 10:31N 26°22' W 079°58'4 7.6
2018-May-17 10:00N 26°26' W 079°56'8 0.5
2018-May-16 18:03N 26°18' W 079°59'214.7
2018-May-16 17:56N 26°17' W 079°60'614.5
2018-May-16 17:30N 26°11' W 080°02'612.2
2018-May-16 17:00N 26°06' W 080°05'2 3.7
2018-May-16 16:30N 26°07' W 080°07'2 3.2
2018-May-16 16:00N 26°07' W 080°09'1 2.8
2018-May-16 15:31N 26°06' W 080°10'0 0.1
2018-May-16 15:00N 26°06' W 080°10'0 0.0
2018-May-16 14:28N 26°06' W 080°10'0 0.0
2018-May-16 13:58N 26°06' W 080°10'0 0.0
2018-May-16 13:28N 26°06' W 080°10'0 0.0
2018-May-16 12:58N 26°06' W 080°10'0 0.0
2018-May-16 12:28N 26°06' W 080°10'0 0.0
2018-May-16 11:58N 26°06' W 080°10'0 0.0
2018-May-16 11:28N 26°06' W 080°10'0 0.0
2018-May-16 10:58N 26°06' W 080°10'0 0.0
2018-May-16 10:28N 26°06' W 080°10'0 0.0
2018-May-16 09:58N 26°06' W 080°10'0 0.0
2018-May-16 09:28N 26°06' W 080°10'0 0.0
2018-May-16 08:58N 26°06' W 080°10'0 0.0
2018-May-16 08:28N 26°06' W 080°10'0 0.0
2018-May-16 07:58N 26°06' W 080°10'0 0.0
2018-May-16 07:28N 26°06' W 080°10'0 0.0
2018-May-16 06:58N 26°06' W 080°10'0 0.0
2018-May-16 06:28N 26°06' W 080°10'0 0.0
2018-May-16 05:58N 26°06' W 080°10'0 0.0
2018-May-16 05:28N 26°06' W 080°10'0 0.0
2018-May-16 04:58N 26°06' W 080°10'0 0.0
2018-May-16 04:28N 26°06' W 080°10'0 0.0
2018-May-16 03:58N 26°06' W 080°10'0 0.0
2018-May-16 03:28N 26°06' W 080°10'0 0.0
2018-May-16 02:58N 26°06' W 080°10'0 0.0
2018-May-16 02:28N 26°06' W 080°10'0 0.0
2018-May-16 01:58N 26°06' W 080°10'0 0.0
2018-May-16 01:28N 26°06' W 080°10'0 0.0
2018-May-16 00:58N 26°06' W 080°10'0 0.0
2018-May-16 00:28N 26°06' W 080°10'0 0.0
2018-May-15 23:58N 26°06' W 080°10'0 0.0
2018-May-15 23:28N 26°06' W 080°10'0 0.0
2018-May-15 22:58N 26°06' W 080°10'0 0.0
2018-May-15 22:28N 26°06' W 080°10'0 0.0
2018-May-15 21:58N 26°06' W 080°10'0 0.0
2018-May-15 21:28N 26°06' W 080°10'0 0.0
2018-May-15 20:58N 26°06' W 080°10'0 0.0
2018-May-15 20:28N 26°06' W 080°10'0 0.0
2018-May-15 19:58N 26°06' W 080°10'0 0.0
2018-May-15 19:28N 26°06' W 080°10'0 0.0
2018-May-15 18:58N 26°06' W 080°10'0 0.0
2018-May-15 18:25N 26°06' W 080°10'0 0.0
2018-May-15 17:58N 26°06' W 080°10'0 0.0
2018-May-15 17:28N 26°06' W 080°10'0 0.0
2018-May-15 16:55N 26°06' W 080°10'0 0.0
2018-May-15 16:28N 26°06' W 080°10'0 0.0
2018-May-15 15:55N 26°06' W 080°10'0 0.0
2018-May-15 15:28N 26°06' W 080°10'0 0.0
2018-May-15 14:58N 26°06' W 080°10'0 0.0
2018-May-15 14:28N 26°06' W 080°10'0 0.0
2018-May-15 13:58N 26°06' W 080°10'0 0.0
2018-May-15 13:28N 26°06' W 080°10'0 0.0
2018-May-15 12:58N 26°06' W 080°10'0 0.0
2018-May-15 12:28N 26°06' W 080°10'0 0.0
2018-May-15 11:58N 26°06' W 080°10'0 0.0
2018-May-15 11:28N 26°06' W 080°10'0 0.0
2018-May-15 10:58N 26°06' W 080°10'0 0.0
2018-May-15 10:28N 26°06' W 080°10'0 0.0
2018-May-15 09:58N 26°06' W 080°10'0 0.0
2018-May-15 09:28N 26°06' W 080°10'0 0.0
2018-May-15 08:58N 26°06' W 080°10'0 0.0
2018-May-15 08:28N 26°06' W 080°10'0 0.0
2018-May-15 07:58N 26°06' W 080°10'0 0.0
2018-May-15 07:28N 26°06' W 080°10'0 0.0
2018-May-15 06:58N 26°06' W 080°10'0 0.0
2018-May-15 06:28N 26°06' W 080°10'0 0.0
2018-May-15 05:58N 26°06' W 080°10'0 0.0
2018-May-15 05:28N 26°06' W 080°10'0 0.0
2018-May-15 04:58N 26°06' W 080°10'0 0.0
2018-May-15 04:25N 26°06' W 080°10'0 0.0
2018-May-15 03:58N 26°06' W 080°10'0 0.0
2018-May-15 03:28N 26°06' W 080°10'0 0.0
2018-May-15 02:58N 26°06' W 080°10'0 0.0
2018-May-15 02:28N 26°06' W 080°10'0 0.0
2018-May-15 01:58N 26°06' W 080°10'0 0.0
2018-May-15 01:28N 26°06' W 080°10'0 0.0
2018-May-15 00:58N 26°06' W 080°10'0 0.0
2018-May-15 00:25N 26°06' W 080°10'0 0.0
2018-May-14 23:58N 26°06' W 080°10'0 0.0
2018-May-14 23:28N 26°06' W 080°10'0 0.0
2018-May-14 22:58N 26°06' W 080°10'0 0.0
2018-May-14 22:28N 26°06' W 080°10'0 0.0
2018-May-14 21:58N 26°06' W 080°10'0 0.0
2018-May-14 21:28N 26°06' W 080°10'0 0.0
2018-May-14 20:58N 26°06' W 080°10'0 0.0
2018-May-14 20:28N 26°06' W 080°10'0 0.0
2018-May-14 19:58N 26°06' W 080°10'0 0.0
2018-May-14 19:28N 26°06' W 080°10'0 0.0
2018-May-14 18:58N 26°06' W 080°10'0 0.0
2018-May-14 18:28N 26°06' W 080°10'0 0.0
2018-May-14 17:58N 26°06' W 080°10'0 0.0
2018-May-14 17:28N 26°06' W 080°10'0 0.0
2018-May-14 16:58N 26°06' W 080°10'0 0.0
2018-May-14 16:28N 26°06' W 080°10'0 0.0
2018-May-14 15:58N 26°06' W 080°10'0 0.0
2018-May-14 15:28N 26°06' W 080°10'0 0.0
2018-May-14 14:58N 26°06' W 080°10'0 0.0
2018-May-14 14:28N 26°06' W 080°10'0 0.0
2018-May-14 13:58N 26°06' W 080°10'0 0.0
2018-May-14 13:28N 26°06' W 080°10'0 0.0
2018-May-14 12:58N 26°06' W 080°10'0 0.0
2018-May-14 12:28N 26°06' W 080°10'0 0.0
2018-May-14 11:55N 26°06' W 080°10'0 0.0
2018-May-14 11:25N 26°06' W 080°10'0 0.0
2018-May-14 10:58N 26°06' W 080°10'0 0.0
2018-May-14 10:28N 26°06' W 080°10'0 0.0
2018-May-14 09:58N 26°06' W 080°10'0 0.0
2018-May-14 09:28N 26°06' W 080°10'0 0.0
2018-May-14 08:58N 26°06' W 080°10'0 0.0
2018-May-14 08:28N 26°06' W 080°10'0 0.0
2018-May-14 07:58N 26°06' W 080°10'0 0.0
2018-May-14 07:28N 26°06' W 080°10'0 0.0
2018-May-14 06:58N 26°06' W 080°10'0 0.0
2018-May-14 06:28N 26°06' W 080°10'0 0.0
2018-May-14 05:58N 26°06' W 080°10'0 0.0
2018-May-14 05:28N 26°06' W 080°10'0 0.0
2018-May-14 04:58N 26°06' W 080°10'0 0.0
2018-May-14 04:28N 26°06' W 080°10'0 0.0
2018-May-14 03:58N 26°06' W 080°10'0 0.0
2018-May-14 03:28N 26°06' W 080°10'0 0.0
2018-May-14 02:58N 26°06' W 080°10'0 0.0
2018-May-14 02:28N 26°06' W 080°10'0 0.0
2018-May-14 01:58N 26°06' W 080°10'0 0.0
2018-May-14 01:28N 26°06' W 080°10'0 0.0
2018-May-14 00:58N 26°06' W 080°10'0 0.0
2018-May-14 00:28N 26°06' W 080°10'0 0.0
2018-May-13 23:55N 26°06' W 080°10'0 0.0
2018-May-13 23:28N 26°06' W 080°10'0 0.0
2018-May-13 22:58N 26°06' W 080°10'0 0.0
2018-May-13 22:28N 26°06' W 080°10'0 0.0
2018-May-13 21:58N 26°06' W 080°10'0 0.0
2018-May-13 21:28N 26°06' W 080°10'0 0.0
2018-May-13 20:55N 26°06' W 080°10'0 0.0
2018-May-13 20:28N 26°06' W 080°10'0 0.0
2018-May-13 19:58N 26°06' W 080°10'0 0.0
2018-May-13 19:28N 26°06' W 080°10'0 0.0
2018-May-13 18:58N 26°06' W 080°10'0 0.0
2018-May-13 18:28N 26°06' W 080°10'0 0.0
2018-May-13 17:58N 26°06' W 080°10'0 0.0
2018-May-13 17:28N 26°06' W 080°10'0 0.0
2018-May-13 16:58N 26°06' W 080°10'0 0.0
2018-May-13 16:28N 26°06' W 080°10'0 0.0
2018-May-13 15:58N 26°06' W 080°10'0 0.0
2018-May-13 15:28N 26°06' W 080°10'0 0.0
2018-May-13 14:58N 26°06' W 080°10'0 0.0
2018-May-13 14:28N 26°06' W 080°10'0 0.0
2018-May-13 13:58N 26°06' W 080°10'0 0.0
2018-May-13 13:28N 26°06' W 080°10'0 0.0
2018-May-13 12:58N 26°06' W 080°10'0 0.0
2018-May-13 12:28N 26°06' W 080°10'0 0.0
2018-May-13 11:58N 26°06' W 080°10'0 0.0
2018-May-13 11:28N 26°06' W 080°10'0 0.0
2018-May-13 10:58N 26°06' W 080°10'0 0.0
2018-May-13 10:28N 26°06' W 080°10'0 0.0
2018-May-13 09:58N 26°06' W 080°10'0 0.0
2018-May-13 09:28N 26°06' W 080°10'0 0.0
2018-May-13 08:58N 26°06' W 080°10'0 0.0
2018-May-13 08:28N 26°06' W 080°10'0 0.0
2018-May-13 07:58N 26°06' W 080°10'0 0.0
2018-May-13 07:25N 26°06' W 080°10'0 0.0
2018-May-13 06:58N 26°06' W 080°10'0 0.0
2018-May-13 06:28N 26°06' W 080°10'0 0.0
2018-May-13 05:58N 26°06' W 080°10'0 0.0
2018-May-13 05:28N 26°06' W 080°10'0 0.0
2018-May-13 04:58N 26°06' W 080°10'0 0.0
2018-May-13 04:28N 26°06' W 080°10'0 0.0
2018-May-13 03:58N 26°06' W 080°10'0 0.0
2018-May-13 03:28N 26°06' W 080°10'0 0.0
2018-May-13 02:55N 26°06' W 080°10'0 0.0
2018-May-13 02:28N 26°06' W 080°10'0 0.0
2018-May-13 01:58N 26°06' W 080°10'0 0.0
2018-May-13 01:28N 26°06' W 080°10'0 0.0
2018-May-13 00:58N 26°06' W 080°10'0 0.0
2018-May-13 00:28N 26°06' W 080°10'0 0.0
2018-May-12 23:58N 26°06' W 080°10'0 0.0
2018-May-12 23:28N 26°06' W 080°10'0 0.0
2018-May-12 22:58N 26°06' W 080°10'0 0.0
2018-May-12 22:28N 26°06' W 080°10'0 0.0
2018-May-12 21:58N 26°06' W 080°10'0 0.0
2018-May-12 21:28N 26°06' W 080°10'0 0.0
2018-May-12 20:58N 26°06' W 080°10'0 0.0
2018-May-12 20:28N 26°06' W 080°10'0 0.0
2018-May-12 19:58N 26°06' W 080°10'0 0.0
2018-May-12 19:25N 26°06' W 080°10'0 0.0
2018-May-12 18:58N 26°06' W 080°10'0 0.0
2018-May-12 18:28N 26°06' W 080°10'0 0.0
2018-May-12 17:58N 26°06' W 080°10'0 0.0
2018-May-12 17:25N 26°06' W 080°10'0 0.0
2018-May-12 16:58N 26°06' W 080°10'0 0.0
2018-May-12 16:28N 26°06' W 080°10'0 0.0
2018-May-12 15:58N 26°06' W 080°10'0 0.0
2018-May-12 15:28N 26°06' W 080°10'0 0.0
2018-May-12 14:55N 26°06' W 080°10'0 0.0
2018-May-12 14:25N 26°06' W 080°10'0 0.0
2018-May-12 13:58N 26°06' W 080°10'0 0.0
2018-May-12 13:28N 26°06' W 080°10'0 0.0
2018-May-12 12:58N 26°06' W 080°10'0 0.0
2018-May-12 12:28N 26°06' W 080°10'0 0.0
2018-May-12 11:58N 26°06' W 080°10'0 0.0
2018-May-12 11:28N 26°06' W 080°10'0 0.0
2018-May-12 10:58N 26°06' W 080°10'0 0.0
2018-May-12 10:28N 26°06' W 080°10'0 0.0
2018-May-12 09:58N 26°06' W 080°10'0 0.0
2018-May-12 09:28N 26°06' W 080°10'0 0.0
2018-May-12 08:58N 26°06' W 080°10'0 0.0
2018-May-12 08:28N 26°06' W 080°10'0 0.0
2018-May-12 07:58N 26°06' W 080°10'0 0.0
2018-May-12 07:28N 26°06' W 080°10'0 0.0
2018-May-12 06:58N 26°06' W 080°10'0 0.0
2018-May-12 06:28N 26°06' W 080°10'0 0.0
2018-May-12 05:58N 26°06' W 080°10'0 0.0
2018-May-12 05:28N 26°06' W 080°10'0 0.0
2018-May-12 04:52N 26°06' W 080°10'0 0.0
2018-May-12 04:28N 26°06' W 080°10'0 0.0
2018-May-12 03:58N 26°06' W 080°10'0 0.0
2018-May-12 03:25N 26°06' W 080°10'0 0.0
2018-May-12 02:58N 26°06' W 080°10'0 0.0
2018-May-12 02:28N 26°06' W 080°10'0 0.0
2018-May-12 01:58N 26°06' W 080°10'0 0.0
2018-May-12 01:28N 26°06' W 080°10'0 0.0
2018-May-12 00:58N 26°06' W 080°10'0 0.0
2018-May-12 00:25N 26°06' W 080°10'0 0.0
2018-May-11 23:58N 26°06' W 080°10'0 0.0
2018-May-11 23:28N 26°06' W 080°10'0 0.0
2018-May-11 22:58N 26°06' W 080°10'0 0.0
2018-May-11 22:28N 26°06' W 080°10'0 0.0
2018-May-11 21:58N 26°06' W 080°10'0 0.0
2018-May-11 21:28N 26°06' W 080°10'0 0.0
2018-May-11 20:58N 26°06' W 080°10'0 0.0
2018-May-11 20:28N 26°06' W 080°10'0 0.0
2018-May-11 19:58N 26°06' W 080°10'0 0.0
2018-May-11 19:25N 26°06' W 080°10'0 0.0
2018-May-11 18:58N 26°06' W 080°10'0 0.0
2018-May-11 18:28N 26°06' W 080°10'0 0.0
2018-May-11 17:58N 26°06' W 080°10'0 0.0
2018-May-11 17:28N 26°06' W 080°10'0 0.0
2018-May-11 16:58N 26°06' W 080°10'0 0.0
2018-May-11 16:28N 26°06' W 080°10'0 0.0
2018-May-11 15:58N 26°06' W 080°10'0 0.0
2018-May-11 15:28N 26°06' W 080°10'0 0.0
2018-May-11 14:52N 26°06' W 080°10'0 0.0
2018-May-11 14:25N 26°06' W 080°10'0 0.0
2018-May-11 13:58N 26°06' W 080°10'0 0.0
2018-May-11 13:25N 26°06' W 080°10'0 0.0
2018-May-11 12:58N 26°06' W 080°10'0 0.0
2018-May-11 12:28N 26°06' W 080°10'0 0.0
2018-May-11 11:58N 26°06' W 080°10'0 0.0
2018-May-11 11:28N 26°06' W 080°10'0 0.0
2018-May-11 10:58N 26°06' W 080°10'0 0.0
2018-May-11 10:25N 26°06' W 080°10'0 0.0
2018-May-11 09:58N 26°06' W 080°10'0 0.0
2018-May-11 09:28N 26°06' W 080°10'0 0.0
2018-May-11 08:58N 26°06' W 080°10'0 0.0
2018-May-11 08:28N 26°06' W 080°10'0 0.0
2018-May-11 07:58N 26°06' W 080°10'0 0.0
2018-May-11 07:28N 26°06' W 080°10'0 0.0
2018-May-11 06:58N 26°06' W 080°10'0 0.0
2018-May-11 06:28N 26°06' W 080°10'0 0.0
2018-May-11 05:58N 26°06' W 080°10'0 0.0
2018-May-11 05:28N 26°06' W 080°10'0 0.0
2018-May-11 04:58N 26°06' W 080°10'0 0.0
2018-May-11 04:28N 26°06' W 080°10'0 0.0
2018-May-11 03:58N 26°06' W 080°10'0 0.0
2018-May-11 03:28N 26°06' W 080°10'0 0.0
2018-May-11 02:58N 26°06' W 080°10'0 0.0
2018-May-11 02:19N 26°06' W 080°10'0 0.0
2018-May-11 01:49N 26°06' W 080°10'0 0.0
2018-May-11 01:22N 26°06' W 080°10'0 0.0
2018-May-11 00:52N 26°06' W 080°10'0 0.0
2018-May-11 00:22N 26°06' W 080°10'0 0.0
2018-May-10 23:58N 26°06' W 080°10'0 0.0
2018-May-10 23:28N 26°06' W 080°10'0 0.0
2018-May-10 22:58N 26°06' W 080°10'0 0.0
2018-May-10 22:22N 26°06' W 080°10'0 0.0
2018-May-10 21:55N 26°06' W 080°10'0 0.0
2018-May-10 21:28N 26°06' W 080°10'0 0.0
2018-May-10 20:58N 26°06' W 080°10'0 0.0
2018-May-10 20:28N 26°06' W 080°10'0 0.0
2018-May-10 19:58N 26°06' W 080°10'0 0.0
2018-May-10 19:28N 26°06' W 080°10'0 0.0
2018-May-10 18:58N 26°06' W 080°10'0 0.0
2018-May-10 18:28N 26°06' W 080°10'0 0.0
2018-May-10 17:58N 26°06' W 080°10'0 0.0
2018-May-10 17:28N 26°06' W 080°10'0 0.0
2018-May-10 16:58N 26°06' W 080°10'0 0.0
2018-May-10 16:28N 26°06' W 080°10'0 0.0
2018-May-10 15:58N 26°06' W 080°10'0 0.0
2018-May-10 15:25N 26°06' W 080°10'0 0.0
2018-May-10 14:58N 26°06' W 080°10'0 0.0
2018-May-10 14:28N 26°06' W 080°10'0 0.0
2018-May-10 13:58N 26°06' W 080°10'0 0.0
2018-May-10 13:28N 26°06' W 080°10'0 0.0
2018-May-10 12:58N 26°06' W 080°10'0 0.0
2018-May-10 12:28N 26°06' W 080°10'0 0.0
2018-May-10 11:58N 26°06' W 080°10'0 0.0
2018-May-10 11:28N 26°06' W 080°10'0 0.0
2018-May-10 10:58N 26°06' W 080°10'0 0.0
2018-May-10 10:28N 26°06' W 080°10'0 0.0
2018-May-10 09:58N 26°06' W 080°10'0 0.0
2018-May-10 09:28N 26°06' W 080°10'0 0.0
2018-May-10 08:58N 26°06' W 080°10'0 0.0
2018-May-10 08:28N 26°06' W 080°10'0 0.0
2018-May-10 07:58N 26°06' W 080°10'0 0.0
2018-May-10 07:28N 26°06' W 080°10'0 0.0
2018-May-10 06:58N 26°06' W 080°10'0 0.0
2018-May-10 06:28N 26°06' W 080°10'0 0.0
2018-May-10 05:58N 26°06' W 080°10'0 0.0
2018-May-10 05:28N 26°06' W 080°10'0 0.0
2018-May-10 04:58N 26°06' W 080°10'0 0.0
2018-May-10 04:28N 26°06' W 080°10'0 0.0
2018-May-10 03:58N 26°06' W 080°10'0 0.0
2018-May-10 03:28N 26°06' W 080°10'0 0.0
2018-May-10 02:58N 26°06' W 080°10'0 0.0
2018-May-10 02:28N 26°06' W 080°10'0 0.0
2018-May-10 01:58N 26°06' W 080°10'0 0.0
2018-May-10 01:28N 26°06' W 080°10'0 0.0
2018-May-10 00:58N 26°06' W 080°10'0 0.0
2018-May-10 00:28N 26°06' W 080°10'0 0.0
2018-May-09 23:58N 26°06' W 080°10'0 0.0
2018-May-09 23:28N 26°06' W 080°10'0 0.0
2018-May-09 22:58N 26°06' W 080°10'0 0.0
2018-May-09 22:28N 26°06' W 080°10'0 0.0
2018-May-09 21:58N 26°06' W 080°10'0 0.0
2018-May-09 21:28N 26°06' W 080°10'0 0.0
2018-May-09 20:58N 26°06' W 080°10'0 0.0
2018-May-09 20:28N 26°06' W 080°10'0 0.0
2018-May-09 19:58N 26°06' W 080°10'0 0.0
2018-May-09 19:25N 26°06' W 080°10'0 0.0
2018-May-09 18:58N 26°06' W 080°10'0 0.0
2018-May-09 18:28N 26°06' W 080°10'0 0.0
2018-May-09 17:55N 26°06' W 080°10'0 0.0
2018-May-09 17:25N 26°06' W 080°10'0 0.0
2018-May-09 16:58N 26°06' W 080°10'0 0.0
2018-May-09 16:28N 26°06' W 080°10'0 0.0
2018-May-09 15:58N 26°06' W 080°10'0 0.0
2018-May-09 15:28N 26°06' W 080°10'0 0.0
2018-May-09 14:58N 26°06' W 080°10'0 0.0
2018-May-09 14:28N 26°06' W 080°10'0 0.0
2018-May-09 13:58N 26°06' W 080°10'0 0.0
2018-May-09 13:22N 26°06' W 080°10'0 0.0
2018-May-09 12:58N 26°06' W 080°10'0 0.0
2018-May-09 12:25N 26°06' W 080°10'0 0.0
2018-May-09 11:58N 26°06' W 080°10'0 0.0
2018-May-09 11:28N 26°06' W 080°10'0 0.0
2018-May-09 10:58N 26°06' W 080°10'0 0.0
2018-May-09 10:28N 26°06' W 080°10'0 0.0
2018-May-09 09:58N 26°06' W 080°10'0 0.0
2018-May-09 09:28N 26°06' W 080°10'0 0.0
2018-May-09 08:58N 26°06' W 080°10'0 0.0
2018-May-09 08:28N 26°06' W 080°10'0 0.0
2018-May-09 07:58N 26°06' W 080°10'0 0.0
2018-May-09 07:28N 26°06' W 080°10'0 0.0
2018-May-09 06:58N 26°06' W 080°10'0 0.0
2018-May-09 06:28N 26°06' W 080°10'0 0.0
2018-May-09 05:58N 26°06' W 080°10'0 0.0
2018-May-09 05:28N 26°06' W 080°10'0 0.0
2018-May-09 04:58N 26°06' W 080°10'0 0.0
2018-May-09 04:28N 26°06' W 080°10'0 0.0
2018-May-09 03:58N 26°06' W 080°10'0 0.0
2018-May-09 03:28N 26°06' W 080°10'0 0.0
2018-May-09 02:58N 26°06' W 080°10'0 0.0
2018-May-09 02:28N 26°06' W 080°10'0 0.0
2018-May-09 01:58N 26°06' W 080°10'0 0.0
2018-May-09 01:28N 26°06' W 080°10'0 0.0
2018-May-09 00:58N 26°06' W 080°10'0 0.0
2018-May-09 00:28N 26°06' W 080°10'0 0.0
2018-May-08 23:58N 26°06' W 080°10'0 0.0
2018-May-08 23:28N 26°06' W 080°10'0 0.0
2018-May-08 22:58N 26°06' W 080°10'0 0.0
2018-May-08 22:28N 26°06' W 080°10'0 0.0
2018-May-08 21:58N 26°06' W 080°10'0 0.0
2018-May-08 21:28N 26°06' W 080°10'0 0.0
2018-May-08 20:58N 26°06' W 080°10'0 0.0
2018-May-08 20:28N 26°06' W 080°10'0 0.0
2018-May-08 19:58N 26°06' W 080°10'0 0.0
2018-May-08 19:28N 26°06' W 080°10'0 0.0
2018-May-08 18:58N 26°06' W 080°10'0 0.0
2018-May-08 18:28N 26°06' W 080°10'0 0.0
2018-May-08 17:58N 26°06' W 080°10'0 0.0
2018-May-08 17:28N 26°06' W 080°10'0 0.0
2018-May-08 16:58N 26°06' W 080°10'0 0.0
2018-May-08 16:28N 26°06' W 080°10'0 0.0
2018-May-08 15:58N 26°06' W 080°10'0 0.0
2018-May-08 15:28N 26°06' W 080°10'0 0.0
2018-May-08 14:58N 26°06' W 080°10'0 0.0
2018-May-08 14:28N 26°06' W 080°10'0 0.0
2018-May-08 13:58N 26°06' W 080°10'0 0.0
2018-May-08 13:28N 26°06' W 080°10'0 0.0
2018-May-08 12:58N 26°06' W 080°10'0 0.0
2018-May-08 12:28N 26°06' W 080°10'0 0.0
2018-May-08 11:58N 26°06' W 080°10'0 0.0
2018-May-08 11:28N 26°06' W 080°10'0 0.0
2018-May-08 10:58N 26°06' W 080°10'0 0.0
2018-May-08 10:28N 26°06' W 080°10'0 0.0
2018-May-08 09:58N 26°06' W 080°10'0 0.0
2018-May-08 09:28N 26°06' W 080°10'0 0.0
2018-May-08 08:58N 26°06' W 080°10'0 0.0
2018-May-08 08:28N 26°06' W 080°10'0 0.0
2018-May-08 07:58N 26°06' W 080°10'0 0.0
2018-May-08 07:28N 26°06' W 080°10'0 0.0
2018-May-08 06:58N 26°06' W 080°10'0 0.0
2018-May-08 06:28N 26°06' W 080°10'0 0.0
2018-May-08 05:58N 26°06' W 080°10'0 0.0
2018-May-08 05:28N 26°06' W 080°10'0 0.0
2018-May-08 04:58N 26°06' W 080°10'0 0.0
2018-May-08 04:28N 26°06' W 080°10'0 0.0
2018-May-08 03:58N 26°06' W 080°10'0 0.0
2018-May-08 03:28N 26°06' W 080°10'0 0.0
2018-May-08 02:58N 26°06' W 080°10'0 0.0
2018-May-08 02:28N 26°06' W 080°10'0 0.0
2018-May-08 01:58N 26°06' W 080°10'0 0.0
2018-May-08 01:28N 26°06' W 080°10'0 0.0
2018-May-08 00:58N 26°06' W 080°10'0 0.0
2018-May-08 00:28N 26°06' W 080°10'0 0.0
2018-May-07 23:55N 26°06' W 080°10'0 0.0
2018-May-07 23:28N 26°06' W 080°10'0 0.0
2018-May-07 22:55N 26°06' W 080°10'0 0.0
2018-May-07 22:28N 26°06' W 080°10'0 0.0
2018-May-07 21:58N 26°06' W 080°10'0 0.0
2018-May-07 21:28N 26°06' W 080°10'0 0.0
2018-May-07 20:58N 26°06' W 080°10'0 0.0
2018-May-07 20:28N 26°06' W 080°10'0 0.0
2018-May-07 19:58N 26°06' W 080°10'0 0.0
2018-May-07 19:28N 26°06' W 080°10'0 0.0
2018-May-07 18:58N 26°06' W 080°10'  

Dump ship's entire track history